sensor_id;sensor_type;location;lat;lon;timestamp;P1;durP1;ratioP1;P2;durP2;ratioP2
4794;SDS011;2411;47.060;15.064;2022-07-29T00:00:57;6.33;;;4.10;;
4794;SDS011;2411;47.060;15.064;2022-07-29T00:03:24;7.23;;;4.77;;
4794;SDS011;2411;47.060;15.064;2022-07-29T00:05:51;5.73;;;5.10;;
4794;SDS011;2411;47.060;15.064;2022-07-29T00:08:19;5.20;;;4.70;;
4794;SDS011;2411;47.060;15.064;2022-07-29T00:10:46;6.33;;;5.47;;
4794;SDS011;2411;47.060;15.064;2022-07-29T00:13:13;5.90;;;5.30;;
4794;SDS011;2411;47.060;15.064;2022-07-29T00:15:40;5.97;;;5.50;;
4794;SDS011;2411;47.060;15.064;2022-07-29T00:18:07;6.03;;;5.53;;
4794;SDS011;2411;47.060;15.064;2022-07-29T00:20:34;4.67;;;4.37;;
4794;SDS011;2411;47.060;15.064;2022-07-29T00:23:01;5.17;;;4.77;;
4794;SDS011;2411;47.060;15.064;2022-07-29T00:25:28;5.37;;;4.90;;
4794;SDS011;2411;47.060;15.064;2022-07-29T00:27:55;6.30;;;4.67;;
4794;SDS011;2411;47.060;15.064;2022-07-29T00:30:22;6.30;;;4.60;;
4794;SDS011;2411;47.060;15.064;2022-07-29T00:32:49;5.53;;;5.13;;
4794;SDS011;2411;47.060;15.064;2022-07-29T00:35:16;9.20;;;5.50;;
4794;SDS011;2411;47.060;15.064;2022-07-29T00:38:02;6.33;;;4.57;;
4794;SDS011;2411;47.060;15.064;2022-07-29T00:40:28;7.33;;;5.03;;
4794;SDS011;2411;47.060;15.064;2022-07-29T00:42:55;5.80;;;5.40;;
4794;SDS011;2411;47.060;15.064;2022-07-29T00:45:24;5.67;;;5.17;;
4794;SDS011;2411;47.060;15.064;2022-07-29T00:47:51;6.80;;;5.10;;
4794;SDS011;2411;47.060;15.064;2022-07-29T00:50:18;5.33;;;4.87;;
4794;SDS011;2411;47.060;15.064;2022-07-29T00:52:45;6.67;;;4.90;;
4794;SDS011;2411;47.060;15.064;2022-07-29T00:55:13;5.87;;;5.10;;
4794;SDS011;2411;47.060;15.064;2022-07-29T00:57:42;5.50;;;5.10;;
4794;SDS011;2411;47.060;15.064;2022-07-29T01:00:11;6.53;;;4.13;;
4794;SDS011;2411;47.060;15.064;2022-07-29T01:02:41;8.00;;;5.13;;
4794;SDS011;2411;47.060;15.064;2022-07-29T01:05:08;5.07;;;4.67;;
4794;SDS011;2411;47.060;15.064;2022-07-29T01:07:37;5.20;;;4.40;;
4794;SDS011;2411;47.060;15.064;2022-07-29T01:10:06;9.30;;;5.33;;
4794;SDS011;2411;47.060;15.064;2022-07-29T01:12:36;5.83;;;5.43;;
4794;SDS011;2411;47.060;15.064;2022-07-29T01:15:04;9.40;;;4.87;;
4794;SDS011;2411;47.060;15.064;2022-07-29T01:17:39;14.37;;;5.27;;
4794;SDS011;2411;47.060;15.064;2022-07-29T01:20:24;5.47;;;4.93;;
4794;SDS011;2411;47.060;15.064;2022-07-29T01:31:19;6.60;;;4.73;;
4794;SDS011;2411;47.060;15.064;2022-07-29T01:33:55;9.80;;;4.83;;
4794;SDS011;2411;47.060;15.064;2022-07-29T01:39:16;6.00;;;5.50;;
4794;SDS011;2411;47.060;15.064;2022-07-29T01:45:00;7.80;;;5.00;;
4794;SDS011;2411;47.060;15.064;2022-07-29T01:47:43;6.13;;;5.63;;
4794;SDS011;2411;47.060;15.064;2022-07-29T01:50:16;6.20;;;5.60;;
4794;SDS011;2411;47.060;15.064;2022-07-29T01:52:46;5.50;;;5.10;;
4794;SDS011;2411;47.060;15.064;2022-07-29T01:55:36;5.33;;;4.90;;
4794;SDS011;2411;47.060;15.064;2022-07-29T01:58:06;5.40;;;5.00;;
4794;SDS011;2411;47.060;15.064;2022-07-29T02:00:35;5.27;;;4.93;;
4794;SDS011;2411;47.060;15.064;2022-07-29T02:03:07;10.93;;;5.40;;
4794;SDS011;2411;47.060;15.064;2022-07-29T02:05:37;9.43;;;6.37;;
4794;SDS011;2411;47.060;15.064;2022-07-29T02:08:07;5.70;;;5.30;;
4794;SDS011;2411;47.060;15.064;2022-07-29T02:10:35;6.00;;;5.60;;
4794;SDS011;2411;47.060;15.064;2022-07-29T02:13:04;6.07;;;5.47;;
4794;SDS011;2411;47.060;15.064;2022-07-29T02:15:33;6.00;;;5.40;;
4794;SDS011;2411;47.060;15.064;2022-07-29T02:18:02;8.50;;;5.80;;
4794;SDS011;2411;47.060;15.064;2022-07-29T02:20:33;5.73;;;5.33;;
4794;SDS011;2411;47.060;15.064;2022-07-29T02:23:02;6.37;;;5.93;;
4794;SDS011;2411;47.060;15.064;2022-07-29T02:25:29;5.43;;;5.03;;
4794;SDS011;2411;47.060;15.064;2022-07-29T02:28:03;5.97;;;5.43;;
4794;SDS011;2411;47.060;15.064;2022-07-29T02:30:31;6.80;;;6.20;;
4794;SDS011;2411;47.060;15.064;2022-07-29T02:33:02;6.70;;;6.13;;
4794;SDS011;2411;47.060;15.064;2022-07-29T02:35:30;6.43;;;5.07;;
4794;SDS011;2411;47.060;15.064;2022-07-29T02:38:00;6.80;;;5.57;;
4794;SDS011;2411;47.060;15.064;2022-07-29T02:40:48;7.20;;;5.60;;
4794;SDS011;2411;47.060;15.064;2022-07-29T02:43:16;6.07;;;4.90;;
4794;SDS011;2411;47.060;15.064;2022-07-29T02:45:45;6.17;;;5.57;;
4794;SDS011;2411;47.060;15.064;2022-07-29T02:48:17;21.80;;;5.93;;
4794;SDS011;2411;47.060;15.064;2022-07-29T02:50:48;7.20;;;5.10;;
4794;SDS011;2411;47.060;15.064;2022-07-29T02:53:20;6.20;;;5.60;;
4794;SDS011;2411;47.060;15.064;2022-07-29T02:55:55;6.67;;;6.07;;
4794;SDS011;2411;47.060;15.064;2022-07-29T02:58:32;5.87;;;5.37;;
4794;SDS011;2411;47.060;15.064;2022-07-29T03:01:06;6.60;;;5.90;;
4794;SDS011;2411;47.060;15.064;2022-07-29T03:03:46;6.50;;;5.97;;
4794;SDS011;2411;47.060;15.064;2022-07-29T03:06:16;6.47;;;5.83;;
4794;SDS011;2411;47.060;15.064;2022-07-29T03:09:03;6.40;;;5.90;;
4794;SDS011;2411;47.060;15.064;2022-07-29T03:11:39;6.80;;;6.17;;
4794;SDS011;2411;47.060;15.064;2022-07-29T03:14:16;6.60;;;6.00;;
4794;SDS011;2411;47.060;15.064;2022-07-29T03:16:46;8.73;;;7.17;;
4794;SDS011;2411;47.060;15.064;2022-07-29T03:19:14;6.97;;;6.47;;
4794;SDS011;2411;47.060;15.064;2022-07-29T03:21:42;6.40;;;6.00;;
4794;SDS011;2411;47.060;15.064;2022-07-29T03:24:09;8.00;;;7.20;;
4794;SDS011;2411;47.060;15.064;2022-07-29T03:26:36;7.70;;;6.10;;
4794;SDS011;2411;47.060;15.064;2022-07-29T03:29:03;6.90;;;6.40;;
4794;SDS011;2411;47.060;15.064;2022-07-29T03:31:30;7.80;;;7.20;;
4794;SDS011;2411;47.060;15.064;2022-07-29T03:33:58;9.80;;;7.00;;
4794;SDS011;2411;47.060;15.064;2022-07-29T03:36:25;7.07;;;6.33;;
4794;SDS011;2411;47.060;15.064;2022-07-29T03:38:52;7.00;;;6.37;;
4794;SDS011;2411;47.060;15.064;2022-07-29T03:41:20;6.90;;;5.77;;
4794;SDS011;2411;47.060;15.064;2022-07-29T03:43:50;8.30;;;7.03;;
4794;SDS011;2411;47.060;15.064;2022-07-29T03:46:19;9.83;;;6.27;;
4794;SDS011;2411;47.060;15.064;2022-07-29T03:48:50;6.90;;;6.30;;
4794;SDS011;2411;47.060;15.064;2022-07-29T03:51:23;6.90;;;6.30;;
4794;SDS011;2411;47.060;15.064;2022-07-29T03:54:00;7.73;;;6.97;;
4794;SDS011;2411;47.060;15.064;2022-07-29T03:56:40;8.27;;;6.63;;
4794;SDS011;2411;47.060;15.064;2022-07-29T03:59:12;8.53;;;7.17;;
4794;SDS011;2411;47.060;15.064;2022-07-29T04:01:41;9.80;;;6.80;;
4794;SDS011;2411;47.060;15.064;2022-07-29T04:04:09;8.00;;;7.00;;
4794;SDS011;2411;47.060;15.064;2022-07-29T04:06:40;8.90;;;7.53;;
4794;SDS011;2411;47.060;15.064;2022-07-29T04:09:08;7.80;;;6.87;;
4794;SDS011;2411;47.060;15.064;2022-07-29T04:11:36;8.70;;;7.80;;
4794;SDS011;2411;47.060;15.064;2022-07-29T04:14:25;7.97;;;7.27;;
4794;SDS011;2411;47.060;15.064;2022-07-29T04:16:52;10.80;;;7.53;;
4794;SDS011;2411;47.060;15.064;2022-07-29T04:19:19;8.27;;;6.40;;
4794;SDS011;2411;47.060;15.064;2022-07-29T04:21:46;8.13;;;7.20;;
4794;SDS011;2411;47.060;15.064;2022-07-29T04:24:13;7.63;;;6.93;;
4794;SDS011;2411;47.060;15.064;2022-07-29T04:26:40;6.20;;;5.77;;
4794;SDS011;2411;47.060;15.064;2022-07-29T04:29:08;6.67;;;6.13;;
4794;SDS011;2411;47.060;15.064;2022-07-29T04:31:35;6.60;;;6.00;;
4794;SDS011;2411;47.060;15.064;2022-07-29T04:34:02;7.27;;;6.63;;
4794;SDS011;2411;47.060;15.064;2022-07-29T04:36:29;5.77;;;5.27;;
4794;SDS011;2411;47.060;15.064;2022-07-29T04:38:56;8.40;;;7.60;;
4794;SDS011;2411;47.060;15.064;2022-07-29T04:41:23;9.50;;;6.20;;
4794;SDS011;2411;47.060;15.064;2022-07-29T04:43:58;6.90;;;6.30;;
4794;SDS011;2411;47.060;15.064;2022-07-29T04:46:32;7.40;;;5.73;;
4794;SDS011;2411;47.060;15.064;2022-07-29T04:49:00;8.93;;;5.60;;
4794;SDS011;2411;47.060;15.064;2022-07-29T04:51:27;6.67;;;5.90;;
4794;SDS011;2411;47.060;15.064;2022-07-29T04:53:54;5.33;;;4.93;;
4794;SDS011;2411;47.060;15.064;2022-07-29T04:56:21;6.13;;;5.63;;
4794;SDS011;2411;47.060;15.064;2022-07-29T04:58:48;5.87;;;5.37;;
4794;SDS011;2411;47.060;15.064;2022-07-29T05:01:15;6.53;;;5.43;;
4794;SDS011;2411;47.060;15.064;2022-07-29T05:03:42;6.80;;;5.87;;
4794;SDS011;2411;47.060;15.064;2022-07-29T05:06:09;10.00;;;6.00;;
4794;SDS011;2411;47.060;15.064;2022-07-29T05:08:36;6.13;;;5.57;;
4794;SDS011;2411;47.060;15.064;2022-07-29T05:11:06;6.37;;;5.77;;
4794;SDS011;2411;47.060;15.064;2022-07-29T05:13:37;5.70;;;5.30;;
4794;SDS011;2411;47.060;15.064;2022-07-29T05:16:12;6.17;;;5.13;;
4794;SDS011;2411;47.060;15.064;2022-07-29T05:18:40;6.97;;;5.83;;
4794;SDS011;2411;47.060;15.064;2022-07-29T05:21:07;5.77;;;5.20;;
4794;SDS011;2411;47.060;15.064;2022-07-29T05:23:34;8.03;;;5.90;;
4794;SDS011;2411;47.060;15.064;2022-07-29T05:26:01;11.80;;;5.37;;
4794;SDS011;2411;47.060;15.064;2022-07-29T05:28:28;6.60;;;6.00;;
4794;SDS011;2411;47.060;15.064;2022-07-29T05:30:55;6.20;;;5.70;;
4794;SDS011;2411;47.060;15.064;2022-07-29T05:33:22;6.97;;;5.83;;
4794;SDS011;2411;47.060;15.064;2022-07-29T05:36:01;6.87;;;5.43;;
4794;SDS011;2411;47.060;15.064;2022-07-29T05:38:32;6.77;;;5.13;;
4794;SDS011;2411;47.060;15.064;2022-07-29T05:41:03;8.70;;;5.63;;
4794;SDS011;2411;47.060;15.064;2022-07-29T05:43:30;6.07;;;5.57;;
4794;SDS011;2411;47.060;15.064;2022-07-29T05:45:57;5.10;;;4.70;;
4794;SDS011;2411;47.060;15.064;2022-07-29T05:48:24;5.77;;;5.23;;
4794;SDS011;2411;47.060;15.064;2022-07-29T05:50:52;6.43;;;5.87;;
4794;SDS011;2411;47.060;15.064;2022-07-29T05:53:19;7.50;;;6.00;;
4794;SDS011;2411;47.060;15.064;2022-07-29T05:55:47;11.33;;;6.23;;
4794;SDS011;2411;47.060;15.064;2022-07-29T05:58:14;5.97;;;5.43;;
4794;SDS011;2411;47.060;15.064;2022-07-29T06:00:41;6.63;;;5.13;;
4794;SDS011;2411;47.060;15.064;2022-07-29T06:03:08;9.43;;;5.93;;
4794;SDS011;2411;47.060;15.064;2022-07-29T06:05:35;11.23;;;6.80;;
4794;SDS011;2411;47.060;15.064;2022-07-29T06:08:02;12.17;;;6.40;;
4794;SDS011;2411;47.060;15.064;2022-07-29T06:10:31;13.50;;;6.77;;
4794;SDS011;2411;47.060;15.064;2022-07-29T06:12:59;8.20;;;5.60;;
4794;SDS011;2411;47.060;15.064;2022-07-29T06:15:25;10.00;;;5.47;;
4794;SDS011;2411;47.060;15.064;2022-07-29T06:17:52;9.97;;;5.70;;
4794;SDS011;2411;47.060;15.064;2022-07-29T06:20:26;13.43;;;4.93;;
4794;SDS011;2411;47.060;15.064;2022-07-29T06:22:57;9.67;;;4.73;;
4794;SDS011;2411;47.060;15.064;2022-07-29T06:25:24;7.13;;;5.33;;
4794;SDS011;2411;47.060;15.064;2022-07-29T06:27:52;10.87;;;5.97;;
4794;SDS011;2411;47.060;15.064;2022-07-29T06:30:18;13.90;;;6.50;;
4794;SDS011;2411;47.060;15.064;2022-07-29T06:32:45;5.67;;;4.63;;
4794;SDS011;2411;47.060;15.064;2022-07-29T06:35:13;8.70;;;5.30;;
4794;SDS011;2411;47.060;15.064;2022-07-29T06:38:00;6.03;;;4.77;;
4794;SDS011;2411;47.060;15.064;2022-07-29T06:40:34;7.73;;;5.10;;
4794;SDS011;2411;47.060;15.064;2022-07-29T06:43:24;7.00;;;5.00;;
4794;SDS011;2411;47.060;15.064;2022-07-29T06:45:53;6.77;;;5.20;;
4794;SDS011;2411;47.060;15.064;2022-07-29T06:48:20;6.53;;;5.37;;
4794;SDS011;2411;47.060;15.064;2022-07-29T06:50:47;9.00;;;5.37;;
4794;SDS011;2411;47.060;15.064;2022-07-29T06:53:14;10.80;;;5.07;;
4794;SDS011;2411;47.060;15.064;2022-07-29T06:55:41;10.90;;;5.90;;
4794;SDS011;2411;47.060;15.064;2022-07-29T06:58:08;5.20;;;4.80;;
4794;SDS011;2411;47.060;15.064;2022-07-29T07:00:35;7.40;;;5.00;;
4794;SDS011;2411;47.060;15.064;2022-07-29T07:03:03;7.33;;;5.10;;
4794;SDS011;2411;47.060;15.064;2022-07-29T07:05:30;10.73;;;5.37;;
4794;SDS011;2411;47.060;15.064;2022-07-29T07:07:56;8.23;;;4.90;;
4794;SDS011;2411;47.060;15.064;2022-07-29T07:10:23;13.07;;;5.17;;
4794;SDS011;2411;47.060;15.064;2022-07-29T07:12:50;9.90;;;5.60;;
4794;SDS011;2411;47.060;15.064;2022-07-29T07:15:17;5.90;;;5.33;;
4794;SDS011;2411;47.060;15.064;2022-07-29T07:18:05;8.60;;;5.07;;
4794;SDS011;2411;47.060;15.064;2022-07-29T07:20:33;6.47;;;5.77;;
4794;SDS011;2411;47.060;15.064;2022-07-29T07:23:00;7.40;;;4.67;;
4794;SDS011;2411;47.060;15.064;2022-07-29T07:25:27;5.30;;;4.83;;
4794;SDS011;2411;47.060;15.064;2022-07-29T07:27:54;6.70;;;4.70;;
4794;SDS011;2411;47.060;15.064;2022-07-29T07:30:21;6.00;;;5.27;;
4794;SDS011;2411;47.060;15.064;2022-07-29T07:32:48;5.87;;;5.40;;
4794;SDS011;2411;47.060;15.064;2022-07-29T07:35:15;5.10;;;4.70;;
4794;SDS011;2411;47.060;15.064;2022-07-29T07:37:42;5.43;;;4.93;;
4794;SDS011;2411;47.060;15.064;2022-07-29T07:40:10;7.50;;;5.00;;
4794;SDS011;2411;47.060;15.064;2022-07-29T07:42:44;6.43;;;4.93;;
4794;SDS011;2411;47.060;15.064;2022-07-29T07:45:11;5.20;;;4.37;;
4794;SDS011;2411;47.060;15.064;2022-07-29T07:47:41;8.83;;;4.40;;
4794;SDS011;2411;47.060;15.064;2022-07-29T07:50:09;6.40;;;4.53;;
4794;SDS011;2411;47.060;15.064;2022-07-29T07:52:53;5.03;;;4.63;;
4794;SDS011;2411;47.060;15.064;2022-07-29T07:55:24;4.80;;;4.50;;
4794;SDS011;2411;47.060;15.064;2022-07-29T07:57:51;7.03;;;3.70;;
4794;SDS011;2411;47.060;15.064;2022-07-29T08:00:19;5.50;;;4.27;;
4794;SDS011;2411;47.060;15.064;2022-07-29T08:02:49;7.60;;;4.23;;
4794;SDS011;2411;47.060;15.064;2022-07-29T08:05:17;7.43;;;4.20;;
4794;SDS011;2411;47.060;15.064;2022-07-29T08:07:47;4.80;;;4.27;;
4794;SDS011;2411;47.060;15.064;2022-07-29T08:10:15;4.40;;;4.07;;
4794;SDS011;2411;47.060;15.064;2022-07-29T08:13:05;3.90;;;3.70;;
4794;SDS011;2411;47.060;15.064;2022-07-29T08:15:33;4.17;;;3.77;;
4794;SDS011;2411;47.060;15.064;2022-07-29T08:18:00;4.53;;;4.13;;
4794;SDS011;2411;47.060;15.064;2022-07-29T08:20:34;4.80;;;4.00;;
4794;SDS011;2411;47.060;15.064;2022-07-29T08:23:02;4.33;;;4.03;;
4794;SDS011;2411;47.060;15.064;2022-07-29T08:25:30;4.43;;;4.13;;
4794;SDS011;2411;47.060;15.064;2022-07-29T08:28:03;4.00;;;3.70;;
4794;SDS011;2411;47.060;15.064;2022-07-29T08:30:31;3.83;;;3.33;;
4794;SDS011;2411;47.060;15.064;2022-07-29T08:32:58;3.73;;;3.40;;
4794;SDS011;2411;47.060;15.064;2022-07-29T08:35:26;3.73;;;3.37;;
4794;SDS011;2411;47.060;15.064;2022-07-29T08:38:00;2.83;;;2.63;;
4794;SDS011;2411;47.060;15.064;2022-07-29T08:40:27;3.90;;;3.50;;
4794;SDS011;2411;47.060;15.064;2022-07-29T08:42:57;4.20;;;3.60;;
4794;SDS011;2411;47.060;15.064;2022-07-29T08:45:26;6.90;;;3.47;;
4794;SDS011;2411;47.060;15.064;2022-07-29T08:47:55;6.30;;;3.73;;
4794;SDS011;2411;47.060;15.064;2022-07-29T08:50:23;5.27;;;3.23;;
4794;SDS011;2411;47.060;15.064;2022-07-29T08:52:49;4.10;;;3.57;;
4794;SDS011;2411;47.060;15.064;2022-07-29T08:55:24;3.80;;;3.50;;
4794;SDS011;2411;47.060;15.064;2022-07-29T08:57:51;3.83;;;3.53;;
4794;SDS011;2411;47.060;15.064;2022-07-29T09:00:22;4.27;;;3.90;;
4794;SDS011;2411;47.060;15.064;2022-07-29T09:02:54;5.97;;;4.10;;
4794;SDS011;2411;47.060;15.064;2022-07-29T09:05:23;4.27;;;3.97;;
4794;SDS011;2411;47.060;15.064;2022-07-29T09:07:50;4.30;;;4.00;;
4794;SDS011;2411;47.060;15.064;2022-07-29T09:10:18;12.03;;;3.93;;
4794;SDS011;2411;47.060;15.064;2022-07-29T09:12:45;4.03;;;3.73;;
4794;SDS011;2411;47.060;15.064;2022-07-29T09:15:12;4.20;;;3.90;;
4794;SDS011;2411;47.060;15.064;2022-07-29T09:17:43;4.40;;;3.43;;
4794;SDS011;2411;47.060;15.064;2022-07-29T09:20:13;6.70;;;4.27;;
4794;SDS011;2411;47.060;15.064;2022-07-29T09:22:41;3.57;;;3.37;;
4794;SDS011;2411;47.060;15.064;2022-07-29T09:25:08;4.83;;;3.60;;
4794;SDS011;2411;47.060;15.064;2022-07-29T09:27:38;3.90;;;3.60;;
4794;SDS011;2411;47.060;15.064;2022-07-29T09:30:06;3.93;;;3.70;;
4794;SDS011;2411;47.060;15.064;2022-07-29T09:33:00;3.70;;;3.40;;
4794;SDS011;2411;47.060;15.064;2022-07-29T09:35:28;3.70;;;3.50;;
4794;SDS011;2411;47.060;15.064;2022-07-29T09:37:56;6.67;;;3.67;;
4794;SDS011;2411;47.060;15.064;2022-07-29T09:40:24;4.30;;;3.67;;
4794;SDS011;2411;47.060;15.064;2022-07-29T09:42:53;4.87;;;3.47;;
4794;SDS011;2411;47.060;15.064;2022-07-29T09:45:27;3.67;;;3.37;;
4794;SDS011;2411;47.060;15.064;2022-07-29T09:47:56;5.13;;;3.83;;
4794;SDS011;2411;47.060;15.064;2022-07-29T09:50:36;5.07;;;4.57;;
4794;SDS011;2411;47.060;15.064;2022-07-29T09:53:03;4.37;;;4.07;;
4794;SDS011;2411;47.060;15.064;2022-07-29T09:55:31;6.70;;;3.37;;
4794;SDS011;2411;47.060;15.064;2022-07-29T09:58:18;7.13;;;3.83;;
4794;SDS011;2411;47.060;15.064;2022-07-29T10:00:48;4.53;;;4.00;;
4794;SDS011;2411;47.060;15.064;2022-07-29T10:03:16;3.73;;;3.43;;
4794;SDS011;2411;47.060;15.064;2022-07-29T10:05:44;6.90;;;4.37;;
4794;SDS011;2411;47.060;15.064;2022-07-29T10:08:12;3.90;;;3.57;;
4794;SDS011;2411;47.060;15.064;2022-07-29T10:10:40;4.03;;;3.63;;
4794;SDS011;2411;47.060;15.064;2022-07-29T10:13:12;7.50;;;4.03;;
4794;SDS011;2411;47.060;15.064;2022-07-29T10:15:42;4.20;;;3.50;;
4794;SDS011;2411;47.060;15.064;2022-07-29T10:18:12;4.87;;;4.57;;
4794;SDS011;2411;47.060;15.064;2022-07-29T10:20:40;4.87;;;3.80;;
4794;SDS011;2411;47.060;15.064;2022-07-29T10:23:08;4.27;;;3.87;;
4794;SDS011;2411;47.060;15.064;2022-07-29T10:25:36;6.13;;;3.27;;
4794;SDS011;2411;47.060;15.064;2022-07-29T10:28:04;4.47;;;3.20;;
4794;SDS011;2411;47.060;15.064;2022-07-29T10:30:32;5.83;;;4.20;;
4794;SDS011;2411;47.060;15.064;2022-07-29T10:33:09;3.90;;;3.60;;
4794;SDS011;2411;47.060;15.064;2022-07-29T10:36:08;4.20;;;3.50;;
4794;SDS011;2411;47.060;15.064;2022-07-29T10:42:24;5.27;;;3.87;;
4794;SDS011;2411;47.060;15.064;2022-07-29T10:44:58;5.07;;;3.90;;
4794;SDS011;2411;47.060;15.064;2022-07-29T10:47:26;8.23;;;4.27;;
4794;SDS011;2411;47.060;15.064;2022-07-29T10:49:57;4.60;;;4.20;;
4794;SDS011;2411;47.060;15.064;2022-07-29T10:55:31;4.17;;;3.70;;
4794;SDS011;2411;47.060;15.064;2022-07-29T10:58:15;4.00;;;3.70;;
4794;SDS011;2411;47.060;15.064;2022-07-29T11:00:45;3.90;;;3.60;;
4794;SDS011;2411;47.060;15.064;2022-07-29T11:06:16;5.10;;;3.67;;
4794;SDS011;2411;47.060;15.064;2022-07-29T11:11:41;7.60;;;4.13;;
4794;SDS011;2411;47.060;15.064;2022-07-29T11:14:16;3.77;;;3.47;;
4794;SDS011;2411;47.060;15.064;2022-07-29T11:17:00;4.40;;;4.00;;
4794;SDS011;2411;47.060;15.064;2022-07-29T11:19:32;4.13;;;3.77;;
4794;SDS011;2411;47.060;15.064;2022-07-29T11:22:01;4.33;;;3.43;;
4794;SDS011;2411;47.060;15.064;2022-07-29T11:24:28;8.90;;;3.77;;
4794;SDS011;2411;47.060;15.064;2022-07-29T11:27:07;4.73;;;3.93;;
4794;SDS011;2411;47.060;15.064;2022-07-29T11:29:38;6.40;;;3.57;;
4794;SDS011;2411;47.060;15.064;2022-07-29T11:32:09;3.93;;;3.63;;
4794;SDS011;2411;47.060;15.064;2022-07-29T11:34:48;5.93;;;3.47;;
4794;SDS011;2411;47.060;15.064;2022-07-29T11:43:58;3.47;;;3.20;;
4794;SDS011;2411;47.060;15.064;2022-07-29T11:49:26;3.43;;;3.23;;
4794;SDS011;2411;47.060;15.064;2022-07-29T11:51:58;10.63;;;4.30;;
4794;SDS011;2411;47.060;15.064;2022-07-29T11:54:32;3.57;;;3.37;;
4794;SDS011;2411;47.060;15.064;2022-07-29T11:57:20;4.40;;;4.00;;
4794;SDS011;2411;47.060;15.064;2022-07-29T11:59:47;4.00;;;3.70;;
4794;SDS011;2411;47.060;15.064;2022-07-29T12:02:15;3.50;;;3.23;;
4794;SDS011;2411;47.060;15.064;2022-07-29T12:05:03;5.17;;;3.97;;
4794;SDS011;2411;47.060;15.064;2022-07-29T12:07:50;5.40;;;3.67;;
4794;SDS011;2411;47.060;15.064;2022-07-29T12:10:17;8.13;;;3.57;;
4794;SDS011;2411;47.060;15.064;2022-07-29T12:12:56;4.20;;;3.40;;
4794;SDS011;2411;47.060;15.064;2022-07-29T12:15:23;4.17;;;3.77;;
4794;SDS011;2411;47.060;15.064;2022-07-29T12:18:16;3.90;;;3.60;;
4794;SDS011;2411;47.060;15.064;2022-07-29T12:20:44;3.53;;;3.23;;
4794;SDS011;2411;47.060;15.064;2022-07-29T12:23:13;3.30;;;3.10;;
4794;SDS011;2411;47.060;15.064;2022-07-29T12:25:44;3.33;;;3.13;;
4794;SDS011;2411;47.060;15.064;2022-07-29T12:28:15;3.30;;;3.10;;
4794;SDS011;2411;47.060;15.064;2022-07-29T12:30:53;4.30;;;3.50;;
4794;SDS011;2411;47.060;15.064;2022-07-29T12:33:27;4.43;;;4.03;;
4794;SDS011;2411;47.060;15.064;2022-07-29T12:36:00;3.77;;;3.10;;
4794;SDS011;2411;47.060;15.064;2022-07-29T12:38:34;3.97;;;3.60;;
4794;SDS011;2411;47.060;15.064;2022-07-29T12:41:02;4.40;;;4.00;;
4794;SDS011;2411;47.060;15.064;2022-07-29T12:43:30;5.13;;;3.80;;
4794;SDS011;2411;47.060;15.064;2022-07-29T12:45:57;4.13;;;3.73;;
4794;SDS011;2411;47.060;15.064;2022-07-29T12:48:39;3.53;;;3.33;;
4794;SDS011;2411;47.060;15.064;2022-07-29T12:51:07;5.17;;;3.60;;
4794;SDS011;2411;47.060;15.064;2022-07-29T12:53:36;4.50;;;4.03;;
4794;SDS011;2411;47.060;15.064;2022-07-29T12:56:04;3.87;;;3.57;;
4794;SDS011;2411;47.060;15.064;2022-07-29T12:58:52;6.33;;;3.90;;
4794;SDS011;2411;47.060;15.064;2022-07-29T13:01:20;5.23;;;3.60;;
4794;SDS011;2411;47.060;15.064;2022-07-29T13:03:51;4.50;;;4.10;;
4794;SDS011;2411;47.060;15.064;2022-07-29T13:11:31;3.70;;;3.40;;
4794;SDS011;2411;47.060;15.064;2022-07-29T13:13:59;4.13;;;3.83;;
4794;SDS011;2411;47.060;15.064;2022-07-29T13:16:32;8.90;;;3.60;;
4794;SDS011;2411;47.060;15.064;2022-07-29T13:19:09;5.43;;;3.70;;
4794;SDS011;2411;47.060;15.064;2022-07-29T13:21:38;4.37;;;3.93;;
4794;SDS011;2411;47.060;15.064;2022-07-29T13:24:06;11.90;;;4.37;;
4794;SDS011;2411;47.060;15.064;2022-07-29T13:26:33;3.73;;;3.53;;
4794;SDS011;2411;47.060;15.064;2022-07-29T13:29:01;9.03;;;3.83;;
4794;SDS011;2411;47.060;15.064;2022-07-29T13:31:28;6.50;;;3.80;;
4794;SDS011;2411;47.060;15.064;2022-07-29T13:33:55;3.27;;;3.07;;
4794;SDS011;2411;47.060;15.064;2022-07-29T13:36:22;4.47;;;3.80;;
4794;SDS011;2411;47.060;15.064;2022-07-29T13:38:49;5.00;;;4.00;;
4794;SDS011;2411;47.060;15.064;2022-07-29T13:41:16;5.83;;;3.97;;
4794;SDS011;2411;47.060;15.064;2022-07-29T13:43:44;13.80;;;3.80;;
4794;SDS011;2411;47.060;15.064;2022-07-29T13:46:15;4.33;;;3.30;;
4794;SDS011;2411;47.060;15.064;2022-07-29T13:48:42;4.13;;;3.87;;
4794;SDS011;2411;47.060;15.064;2022-07-29T13:51:09;4.03;;;3.57;;
4794;SDS011;2411;47.060;15.064;2022-07-29T13:53:36;3.90;;;3.57;;
4794;SDS011;2411;47.060;15.064;2022-07-29T13:56:03;5.50;;;3.90;;
4794;SDS011;2411;47.060;15.064;2022-07-29T13:58:34;4.20;;;3.70;;
4794;SDS011;2411;47.060;15.064;2022-07-29T14:01:02;4.27;;;3.87;;
4794;SDS011;2411;47.060;15.064;2022-07-29T14:03:29;3.73;;;3.13;;
4794;SDS011;2411;47.060;15.064;2022-07-29T14:05:56;3.73;;;3.40;;
4794;SDS011;2411;47.060;15.064;2022-07-29T14:08:26;4.10;;;3.80;;
4794;SDS011;2411;47.060;15.064;2022-07-29T14:10:53;4.20;;;3.80;;
4794;SDS011;2411;47.060;15.064;2022-07-29T14:13:20;3.70;;;3.40;;
4794;SDS011;2411;47.060;15.064;2022-07-29T14:15:51;3.93;;;3.63;;
4794;SDS011;2411;47.060;15.064;2022-07-29T14:18:18;10.13;;;3.90;;
4794;SDS011;2411;47.060;15.064;2022-07-29T14:20:45;5.77;;;4.10;;
4794;SDS011;2411;47.060;15.064;2022-07-29T14:23:12;4.63;;;4.10;;
4794;SDS011;2411;47.060;15.064;2022-07-29T14:25:41;4.77;;;3.97;;
4794;SDS011;2411;47.060;15.064;2022-07-29T14:28:09;4.60;;;4.20;;
4794;SDS011;2411;47.060;15.064;2022-07-29T14:30:39;4.37;;;4.00;;
4794;SDS011;2411;47.060;15.064;2022-07-29T14:33:09;5.03;;;4.00;;
4794;SDS011;2411;47.060;15.064;2022-07-29T14:35:36;4.10;;;3.70;;
4794;SDS011;2411;47.060;15.064;2022-07-29T14:38:04;4.17;;;3.87;;
4794;SDS011;2411;47.060;15.064;2022-07-29T14:40:31;5.07;;;3.90;;
4794;SDS011;2411;47.060;15.064;2022-07-29T14:42:58;7.50;;;3.60;;
4794;SDS011;2411;47.060;15.064;2022-07-29T14:45:25;4.77;;;3.60;;
4794;SDS011;2411;47.060;15.064;2022-07-29T14:47:54;4.93;;;3.80;;
4794;SDS011;2411;47.060;15.064;2022-07-29T14:50:22;4.17;;;3.77;;
4794;SDS011;2411;47.060;15.064;2022-07-29T14:52:57;5.00;;;3.90;;
4794;SDS011;2411;47.060;15.064;2022-07-29T14:55:25;4.07;;;3.60;;
4794;SDS011;2411;47.060;15.064;2022-07-29T14:57:52;5.27;;;3.57;;
4794;SDS011;2411;47.060;15.064;2022-07-29T15:00:33;4.70;;;4.30;;
4794;SDS011;2411;47.060;15.064;2022-07-29T15:03:00;4.33;;;3.63;;
4794;SDS011;2411;47.060;15.064;2022-07-29T15:05:29;4.43;;;4.13;;
4794;SDS011;2411;47.060;15.064;2022-07-29T15:07:56;4.00;;;3.70;;
4794;SDS011;2411;47.060;15.064;2022-07-29T15:10:25;4.73;;;3.53;;
4794;SDS011;2411;47.060;15.064;2022-07-29T15:12:55;4.30;;;4.00;;
4794;SDS011;2411;47.060;15.064;2022-07-29T15:15:22;4.57;;;4.17;;
4794;SDS011;2411;47.060;15.064;2022-07-29T15:17:49;4.27;;;3.87;;
4794;SDS011;2411;47.060;15.064;2022-07-29T15:20:16;5.20;;;4.07;;
4794;SDS011;2411;47.060;15.064;2022-07-29T15:22:43;4.30;;;3.87;;
4794;SDS011;2411;47.060;15.064;2022-07-29T15:25:10;4.10;;;3.43;;
4794;SDS011;2411;47.060;15.064;2022-07-29T15:27:37;5.27;;;4.33;;
4794;SDS011;2411;47.060;15.064;2022-07-29T15:30:04;4.00;;;3.70;;
4794;SDS011;2411;47.060;15.064;2022-07-29T15:32:31;4.03;;;3.57;;
4794;SDS011;2411;47.060;15.064;2022-07-29T15:34:58;4.23;;;3.70;;
4794;SDS011;2411;47.060;15.064;2022-07-29T15:37:25;4.40;;;4.00;;
4794;SDS011;2411;47.060;15.064;2022-07-29T15:40:14;4.17;;;3.87;;
4794;SDS011;2411;47.060;15.064;2022-07-29T15:42:41;4.30;;;3.90;;
4794;SDS011;2411;47.060;15.064;2022-07-29T15:45:08;4.87;;;3.63;;
4794;SDS011;2411;47.060;15.064;2022-07-29T15:47:35;4.23;;;3.83;;
4794;SDS011;2411;47.060;15.064;2022-07-29T15:50:02;4.63;;;4.20;;
4794;SDS011;2411;47.060;15.064;2022-07-29T15:52:30;4.67;;;4.37;;
4794;SDS011;2411;47.060;15.064;2022-07-29T15:54:57;5.33;;;4.40;;
4794;SDS011;2411;47.060;15.064;2022-07-29T15:57:24;4.73;;;4.23;;
4794;SDS011;2411;47.060;15.064;2022-07-29T15:59:51;5.23;;;3.97;;